Time;durP1;ratioP1;P1;durP2;ratioP2;P2;SDS_P1;SDS_P2;PMS_P1;PMS_P2;Temp;Humidity;BMP_temperature;BMP_pressure;BME280_temperature;BME280_humidity;BME280_pressure;Samples;Min_cycle;Max_cycle;Signal;HPM_P1;HPM_P2
2023/10/18 00:00:58;;;;;;;5.88;5.13;;;;;;;;;;5074560;28;20021;-76
2023/10/18 00:03:31;;;;;;;5.80;4.68;;;;;;;;;;5074246;28;20104;-76
2023/10/18 00:05:57;;;;;;;7.93;5.05;;;;;;;;;;5074136;28;20016;-77
2023/10/18 00:08:23;;;;;;;14.95;9.32;;;;;;;;;;5074360;28;20023;-76
2023/10/18 00:10:55;;;;;;;17.27;10.52;;;;;;;;;;5066875;28;20025;-77
2023/10/18 00:13:25;;;;;;;14.52;9.55;;;;;;;;;;5054843;28;20044;-77
2023/10/18 00:15:53;;;;;;;13.40;8.70;;;;;;;;;;5074360;28;20025;-77
2023/10/18 00:18:23;;;;;;;14.10;9.18;;;;;;;;;;5073941;28;20498;-76
2023/10/18 00:20:58;;;;;;;14.23;9.32;;;;;;;;;;5073904;28;20394;-76
2023/10/18 00:23:24;;;;;;;13.27;9.15;;;;;;;;;;5072501;28;20024;-77
2023/10/18 00:25:50;;;;;;;17.73;10.13;;;;;;;;;;5073610;28;20051;-76
2023/10/18 00:28:16;;;;;;;15.57;10.70;;;;;;;;;;5072645;28;20077;-76
2023/10/18 00:30:42;;;;;;;13.70;9.27;;;;;;;;;;5073657;28;20016;-76
2023/10/18 00:33:09;;;;;;;13.48;9.70;;;;;;;;;;5072651;28;20031;-77
2023/10/18 00:35:36;;;;;;;15.60;11.38;;;;;;;;;;5087511;28;20143;-77
2023/10/18 00:38:14;;;;;;;21.13;10.88;;;;;;;;;;5094116;28;20039;-76
2023/10/18 00:40:40;;;;;;;14.13;10.63;;;;;;;;;;5076686;28;20386;-77
2023/10/18 00:43:26;;;;;;;13.82;9.63;;;;;;;;;;5074722;28;20029;-77
2023/10/18 00:45:53;;;;;;;13.38;9.18;;;;;;;;;;5074713;28;20016;-76
2023/10/18 00:48:28;;;;;;;13.10;9.80;;;;;;;;;;5073291;28;20390;-76
2023/10/18 00:50:55;;;;;;;12.88;9.63;;;;;;;;;;5074875;28;20028;-77
2023/10/18 00:53:23;;;;;;;16.33;10.48;;;;;;;;;;5082673;28;20020;-76
2023/10/18 00:55:53;;;;;;;12.68;9.30;;;;;;;;;;5090086;22;20053;-74
2023/10/18 00:58:20;;;;;;;12.73;8.40;;;;;;;;;;5037126;28;20098;-73
2023/10/18 01:00:46;;;;;;;12.82;9.20;;;;;;;;;;5052800;28;20025;-75
2023/10/18 01:03:28;;;;;;;12.13;9.00;;;;;;;;;;5052738;28;20033;-75
2023/10/18 01:06:17;;;;;;;15.50;9.57;;;;;;;;;;5052538;28;20025;-74
2023/10/18 01:08:45;;;;;;;10.10;7.35;;;;;;;;;;5052755;28;20021;-75
2023/10/18 01:11:12;;;;;;;12.90;9.25;;;;;;;;;;5052857;28;20068;-75
2023/10/18 01:13:42;;;;;;;11.75;7.93;;;;;;;;;;5051242;28;20097;-74
2023/10/18 01:16:13;;;;;;;12.15;8.25;;;;;;;;;;5065102;28;20025;-75
2023/10/18 01:18:42;;;;;;;10.98;7.97;;;;;;;;;;5055208;28;20017;-74
2023/10/18 01:21:16;;;;;;;9.20;6.80;;;;;;;;;;5053331;28;20025;-74
2023/10/18 01:23:42;;;;;;;8.75;6.60;;;;;;;;;;5052820;28;20132;-74
2023/10/18 01:26:10;;;;;;;8.85;6.32;;;;;;;;;;5052853;28;20033;-74
2023/10/18 01:28:36;;;;;;;8.20;6.55;;;;;;;;;;5053281;28;20027;-75
2023/10/18 01:31:03;;;;;;;8.82;6.90;;;;;;;;;;5051841;28;20083;-74
2023/10/18 01:33:31;;;;;;;11.50;7.63;;;;;;;;;;5055217;28;20032;-74
2023/10/18 01:35:58;;;;;;;11.25;8.25;;;;;;;;;;5071091;28;20103;-74
2023/10/18 01:38:29;;;;;;;10.65;7.90;;;;;;;;;;5072048;28;20112;-75
2023/10/18 01:40:58;;;;;;;10.40;7.32;;;;;;;;;;5073837;28;20040;-75
2023/10/18 01:43:27;;;;;;;9.73;7.13;;;;;;;;;;5073589;28;20021;-74
2023/10/18 01:45:54;;;;;;;9.10;6.88;;;;;;;;;;5073854;28;20031;-74
2023/10/18 01:48:20;;;;;;;11.00;7.40;;;;;;;;;;5073949;28;20025;-74
2023/10/18 01:50:50;;;;;;;10.30;7.15;;;;;;;;;;5076398;28;20117;-74
2023/10/18 01:53:16;;;;;;;10.80;7.68;;;;;;;;;;5076661;28;20028;-74
2023/10/18 01:55:53;;;;;;;11.98;8.90;;;;;;;;;;5076503;28;20396;-74
2023/10/18 01:58:24;;;;;;;11.02;7.93;;;;;;;;;;5076986;28;20339;-75
2023/10/18 02:00:53;;;;;;;10.95;7.45;;;;;;;;;;5076481;28;20029;-75
2023/10/18 02:03:19;;;;;;;9.48;7.57;;;;;;;;;;5076398;28;20025;-75
2023/10/18 02:05:49;;;;;;;11.10;8.25;;;;;;;;;;5074939;28;20025;-74
2023/10/18 02:08:15;;;;;;;9.18;7.07;;;;;;;;;;5075728;28;20372;-75
2023/10/18 02:10:42;;;;;;;9.20;6.38;;;;;;;;;;5075909;28;20029;-75
2023/10/18 02:13:13;;;;;;;9.95;7.32;;;;;;;;;;5075598;28;20030;-74
2023/10/18 02:15:40;;;;;;;10.63;7.38;;;;;;;;;;5075806;28;20403;-74
2023/10/18 02:18:10;;;;;;;12.25;7.63;;;;;;;;;;5075684;28;20047;-74
2023/10/18 02:20:41;;;;;;;12.23;8.25;;;;;;;;;;5075521;28;20033;-74
2023/10/18 02:23:14;;;;;;;11.90;8.20;;;;;;;;;;5074482;28;20020;-75
2023/10/18 02:25:43;;;;;;;12.50;8.77;;;;;;;;;;5075375;28;20390;-75
2023/10/18 02:28:22;;;;;;;10.02;7.30;;;;;;;;;;5075129;28;20483;-74
2023/10/18 02:30:55;;;;;;;10.90;7.55;;;;;;;;;;5073499;28;20028;-75
2023/10/18 02:33:22;;;;;;;12.55;8.35;;;;;;;;;;5074953;28;20505;-73
2023/10/18 02:35:49;;;;;;;12.73;9.57;;;;;;;;;;5074529;28;20524;-74
2023/10/18 02:38:15;;;;;;;13.35;8.82;;;;;;;;;;5064279;28;20024;-75
2023/10/18 02:40:41;;;;;;;12.90;9.07;;;;;;;;;;5054843;28;20033;-74
2023/10/18 02:43:14;;;;;;;11.75;8.38;;;;;;;;;;5054422;28;20025;-74
2023/10/18 02:45:45;;;;;;;14.35;9.70;;;;;;;;;;5052811;28;20131;-74
2023/10/18 02:48:14;;;;;;;15.55;9.70;;;;;;;;;;5054531;28;20501;-73
2023/10/18 02:50:40;;;;;;;12.27;8.77;;;;;;;;;;5054528;28;20073;-76
2023/10/18 02:53:06;;;;;;;12.63;8.80;;;;;;;;;;5054332;28;20032;-75
2023/10/18 02:55:38;;;;;;;10.38;7.90;;;;;;;;;;5069734;28;20519;-74
2023/10/18 02:58:06;;;;;;;14.00;9.57;;;;;;;;;;5053716;28;20483;-74
2023/10/18 03:00:34;;;;;;;14.35;10.18;;;;;;;;;;5054252;28;20100;-74
2023/10/18 03:03:01;;;;;;;14.73;8.88;;;;;;;;;;5054555;28;20475;-76
2023/10/18 03:05:28;;;;;;;10.50;8.25;;;;;;;;;;5054011;28;20480;-75
2023/10/18 03:07:54;;;;;;;10.68;7.82;;;;;;;;;;5054216;28;20071;-75
2023/10/18 03:10:27;;;;;;;12.43;8.35;;;;;;;;;;5053982;28;20021;-74
2023/10/18 03:12:53;;;;;;;9.75;6.93;;;;;;;;;;5073066;28;20438;-74
2023/10/18 03:15:23;;;;;;;12.43;8.82;;;;;;;;;;5073929;28;20017;-75
2023/10/18 03:17:49;;;;;;;11.05;8.25;;;;;;;;;;5072325;28;20028;-75
2023/10/18 03:20:26;;;;;;;11.20;7.72;;;;;;;;;;5074143;28;20520;-75
2023/10/18 03:22:52;;;;;;;11.30;7.65;;;;;;;;;;5074075;28;20024;-75
2023/10/18 03:25:30;;;;;;;10.10;7.07;;;;;;;;;;5073648;28;20031;-75
2023/10/18 03:28:04;;;;;;;8.98;6.82;;;;;;;;;;5072246;28;20024;-75
2023/10/18 03:31:12;;;;;;;8.20;6.25;;;;;;;;;;5073732;28;20029;-75
2023/10/18 03:33:28;;;;;;;10.15;7.05;;;;;;;;;;5070772;28;20108;-75
2023/10/18 03:36:06;;;;;;;8.95;6.85;;;;;;;;;;5076423;28;20025;-75
2023/10/18 03:38:39;;;;;;;10.40;7.45;;;;;;;;;;5076084;28;20541;-76
2023/10/18 03:41:08;;;;;;;9.07;7.07;;;;;;;;;;5076883;28;20044;-76
2023/10/18 03:43:36;;;;;;;8.43;6.57;;;;;;;;;;5079797;28;20391;-75
2023/10/18 03:46:29;;;;;;;10.90;7.97;;;;;;;;;;5076697;28;20113;-75
2023/10/18 03:48:54;;;;;;;12.07;8.32;;;;;;;;;;5076312;28;20029;-74
2023/10/18 03:51:23;;;;;;;11.25;8.73;;;;;;;;;;5088265;28;20116;-74
2023/10/18 03:53:53;;;;;;;13.15;9.65;;;;;;;;;;5077862;28;20020;-74
2023/10/18 03:56:22;;;;;;;10.88;7.97;;;;;;;;;;5073473;28;20505;-74
2023/10/18 03:59:00;;;;;;;12.23;8.48;;;;;;;;;;5075176;28;20044;-74
2023/10/18 04:01:41;;;;;;;12.52;8.93;;;;;;;;;;5060957;28;20162;-74
2023/10/18 04:04:12;;;;;;;12.48;9.52;;;;;;;;;;5053609;28;20017;-75
2023/10/18 04:06:38;;;;;;;12.05;9.15;;;;;;;;;;5052696;28;20031;-74
2023/10/18 04:09:14;;;;;;;11.13;8.48;;;;;;;;;;5053078;28;20407;-75
2023/10/18 04:11:41;;;;;;;11.13;8.23;;;;;;;;;;5052754;28;20035;-75
2023/10/18 04:14:10;;;;;;;10.52;7.75;;;;;;;;;;5053012;28;20103;-75
2023/10/18 04:16:36;;;;;;;10.48;7.55;;;;;;;;;;5050909;28;20032;-75
2023/10/18 04:19:07;;;;;;;10.02;7.53;;;;;;;;;;5067944;28;20029;-74
2023/10/18 04:21:34;;;;;;;8.38;6.90;;;;;;;;;;5051439;28;20396;-75
2023/10/18 04:24:03;;;;;;;10.25;7.75;;;;;;;;;;5052737;28;20053;-74
2023/10/18 04:26:29;;;;;;;9.48;7.63;;;;;;;;;;5053006;28;20020;-74
2023/10/18 04:29:01;;;;;;;14.43;9.55;;;;;;;;;;5052614;28;20025;-75
2023/10/18 04:31:29;;;;;;;13.80;10.07;;;;;;;;;;5052249;28;20434;-74
2023/10/18 04:33:57;;;;;;;16.42;10.52;;;;;;;;;;5053601;28;20025;-76
2023/10/18 04:36:24;;;;;;;14.00;10.43;;;;;;;;;;5050921;28;20495;-75
2023/10/18 04:38:56;;;;;;;13.18;10.05;;;;;;;;;;5052410;28;20583;-75
2023/10/18 04:43:50;;;;;;;15.50;11.27;;;;;;;;;;5052571;28;20029;-74
2023/10/18 04:46:18;;;;;;;16.17;11.10;;;;;;;;;;5052289;28;20021;-74
2023/10/18 04:54:00;;;;;;;20.20;12.57;;;;;;;;;;5038511;28;20021;-74
2023/10/18 04:56:34;;;;;;;18.65;11.95;;;;;;;;;;5061005;28;20502;-75
2023/10/18 04:59:06;;;;;;;15.55;10.82;;;;;;;;;;5073026;28;20394;-75
2023/10/18 05:01:36;;;;;;;13.75;10.30;;;;;;;;;;5071279;28;20021;-75
2023/10/18 05:04:20;;;;;;;12.77;10.18;;;;;;;;;;5072351;28;20021;-74
2023/10/18 05:06:52;;;;;;;15.65;10.43;;;;;;;;;;5069565;28;20021;-74
2023/10/18 05:09:18;;;;;;;16.27;10.65;;;;;;;;;;5052357;28;20068;-75
2023/10/18 05:11:47;;;;;;;17.08;11.07;;;;;;;;;;5053022;28;20025;-75
2023/10/18 05:14:35;;;;;;;15.65;10.07;;;;;;;;;;5050970;28;20110;-75
2023/10/18 05:17:02;;;;;;;15.15;9.48;;;;;;;;;;5052155;28;20100;-75
2023/10/18 05:19:31;;;;;;;14.95;10.50;;;;;;;;;;5051978;28;20052;-75
2023/10/18 05:21:58;;;;;;;13.70;9.27;;;;;;;;;;5055164;28;20028;-75
2023/10/18 05:24:24;;;;;;;15.75;9.57;;;;;;;;;;5064261;28;20552;-74
2023/10/18 05:26:55;;;;;;;11.85;9.00;;;;;;;;;;5066575;28;20415;-75
2023/10/18 05:29:22;;;;;;;12.55;9.45;;;;;;;;;;5056115;28;20033;-74
2023/10/18 05:32:05;;;;;;;9.23;7.50;;;;;;;;;;5054607;28;20052;-74
2023/10/18 05:34:49;;;;;;;11.57;7.88;;;;;;;;;;5056322;28;20032;-75
2023/10/18 05:37:15;;;;;;;8.70;6.82;;;;;;;;;;5054270;28;20055;-75
2023/10/18 05:40:42;;;;;;;12.52;8.77;;;;;;;;;;5055660;28;20438;-76
2023/10/18 05:42:36;;;;;;;10.60;8.20;;;;;;;;;;5078404;28;20017;-74
2023/10/18 05:45:02;;;;;;;8.68;6.93;;;;;;;;;;5079631;28;20368;-76
2023/10/18 05:47:29;;;;;;;9.52;7.45;;;;;;;;;;5077324;28;20478;-75
2023/10/18 05:49:59;;;;;;;9.48;7.22;;;;;;;;;;5077206;28;20032;-74
2023/10/18 05:52:37;;;;;;;9.93;7.38;;;;;;;;;;5076097;28;20087;-76
2023/10/18 05:55:08;;;;;;;10.10;7.45;;;;;;;;;;5076260;28;20096;-75
2023/10/18 05:57:35;;;;;;;7.90;6.05;;;;;;;;;;5072523;28;20036;-75
2023/10/18 06:00:15;;;;;;;8.77;6.53;;;;;;;;;;5074105;28;20020;-77
2023/10/18 06:02:42;;;;;;;8.45;6.43;;;;;;;;;;5075955;28;20027;-74
2023/10/18 06:05:09;;;;;;;8.25;6.47;;;;;;;;;;5076089;28;20106;-74
2023/10/18 06:07:36;;;;;;;7.38;6.15;;;;;;;;;;5076611;28;20025;-75
2023/10/18 06:10:23;;;;;;;9.50;6.10;;;;;;;;;;5076302;28;20275;-73
2023/10/18 06:12:56;;;;;;;7.68;5.88;;;;;;;;;;5076498;28;20021;-75
2023/10/18 06:15:34;;;;;;;9.25;6.88;;;;;;;;;;5076023;28;20020;-76
2023/10/18 06:18:00;;;;;;;8.65;6.47;;;;;;;;;;5074858;28;20063;-76
2023/10/18 06:23:07;;;;;;;7.57;5.63;;;;;;;;;;5079732;28;20428;-75
2023/10/18 06:25:35;;;;;;;8.20;6.57;;;;;;;;;;5076213;28;20028;-77
2023/10/18 06:28:06;;;;;;;7.00;5.88;;;;;;;;;;5075430;28;20104;-76
2023/10/18 06:30:35;;;;;;;8.35;6.07;;;;;;;;;;5062099;28;20450;-76
2023/10/18 06:33:06;;;;;;;9.15;6.60;;;;;;;;;;5065078;28;20025;-76
2023/10/18 06:35:32;;;;;;;7.80;6.07;;;;;;;;;;5058638;28;20502;-77
2023/10/18 06:38:02;;;;;;;7.78;6.18;;;;;;;;;;5056368;28;20081;-75
2023/10/18 06:40:50;;;;;;;9.25;6.47;;;;;;;;;;5056904;28;20074;-75
2023/10/18 06:43:16;;;;;;;11.25;8.15;;;;;;;;;;5054767;28;20025;-75
2023/10/18 06:45:43;;;;;;;11.68;8.35;;;;;;;;;;5057175;28;20017;-76
2023/10/18 06:48:09;;;;;;;11.55;8.00;;;;;;;;;;5077519;28;20055;-75
2023/10/18 06:50:35;;;;;;;9.48;7.55;;;;;;;;;;5077171;28;20032;-75
2023/10/18 06:53:06;;;;;;;12.18;8.23;;;;;;;;;;5076596;28;20109;-75
2023/10/18 07:00:53;;;;;;;8.50;6.30;;;;;;;;;;5077494;28;20040;-75
2023/10/18 07:03:27;;;;;;;10.35;7.63;;;;;;;;;;5075462;28;20067;-75
2023/10/18 07:05:57;;;;;;;14.57;10.35;;;;;;;;;;5075712;28;20111;-75
2023/10/18 07:08:40;;;;;;;15.73;9.80;;;;;;;;;;5076126;28;20141;-75
2023/10/18 07:11:08;;;;;;;15.30;10.05;;;;;;;;;;5078740;28;20044;-75
2023/10/18 07:13:38;;;;;;;15.35;10.68;;;;;;;;;;5082296;28;20115;-75
2023/10/18 07:16:11;;;;;;;16.75;11.05;;;;;;;;;;5077441;28;20088;-74
2023/10/18 07:18:38;;;;;;;15.57;10.63;;;;;;;;;;5074943;28;20471;-76
2023/10/18 07:21:09;;;;;;;13.98;9.65;;;;;;;;;;5075904;28;20047;-76
2023/10/18 07:23:40;;;;;;;13.88;9.35;;;;;;;;;;5074203;28;20033;-75
2023/10/18 07:26:15;;;;;;;12.25;8.30;;;;;;;;;;5075876;28;20078;-75
2023/10/18 07:28:44;;;;;;;10.05;7.57;;;;;;;;;;5075951;28;20016;-76
2023/10/18 07:31:11;;;;;;;10.10;7.63;;;;;;;;;;5075844;28;20020;-76
2023/10/18 07:33:40;;;;;;;8.82;6.57;;;;;;;;;;5074755;28;20078;-76
2023/10/18 07:36:09;;;;;;;7.00;5.70;;;;;;;;;;5073712;28;20020;-75
2023/10/18 07:38:47;;;;;;;7.75;6.05;;;;;;;;;;5074579;28;20024;-75
2023/10/18 07:41:13;;;;;;;9.15;7.45;;;;;;;;;;5074781;28;20029;-75
2023/10/18 07:43:41;;;;;;;8.32;6.45;;;;;;;;;;5076445;28;20096;-76
2023/10/18 07:46:16;;;;;;;8.77;6.72;;;;;;;;;;5076880;28;20040;-76
2023/10/18 07:48:46;;;;;;;6.65;5.95;;;;;;;;;;5076110;28;20067;-75
2023/10/18 07:51:24;;;;;;;8.90;6.75;;;;;;;;;;5076007;28;20055;-75
2023/10/18 07:53:59;;;;;;;8.25;6.45;;;;;;;;;;5075111;28;20081;-77
2023/10/18 07:56:32;;;;;;;8.15;7.05;;;;;;;;;;5074367;28;20367;-76
2023/10/18 08:01:47;;;;;;;7.07;5.88;;;;;;;;;;5075794;28;20032;-74
2023/10/18 08:04:17;;;;;;;7.32;5.65;;;;;;;;;;5076106;28;20390;-77
2023/10/18 08:06:44;;;;;;;5.35;4.78;;;;;;;;;;5075264;28;20046;-76
2023/10/18 08:09:11;;;;;;;7.28;5.10;;;;;;;;;;5073361;28;20398;-76
2023/10/18 08:11:37;;;;;;;7.57;6.07;;;;;;;;;;5076450;28;20024;-76
2023/10/18 08:14:10;;;;;;;7.68;6.05;;;;;;;;;;5078979;28;20081;-76
2023/10/18 08:16:52;;;;;;;8.45;6.80;;;;;;;;;;5081398;28;20025;-75
2023/10/18 08:19:22;;;;;;;9.68;7.18;;;;;;;;;;5078557;28;20097;-75
2023/10/18 08:24:34;;;;;;;8.95;6.80;;;;;;;;;;5079153;28;20033;-76
2023/10/18 08:27:09;;;;;;;9.10;7.07;;;;;;;;;;5057322;28;20216;-75
2023/10/18 08:29:35;;;;;;;7.20;6.22;;;;;;;;;;5056884;28;20085;-75
2023/10/18 08:32:09;;;;;;;7.10;5.70;;;;;;;;;;5064956;28;20036;-75
2023/10/18 08:34:36;;;;;;;6.47;5.50;;;;;;;;;;5068155;28;20021;-75
2023/10/18 08:37:02;;;;;;;8.20;6.60;;;;;;;;;;5071812;28;20460;-74
2023/10/18 08:39:28;;;;;;;13.05;8.95;;;;;;;;;;5073319;28;20454;-74
2023/10/18 08:41:56;;;;;;;10.68;8.57;;;;;;;;;;5078633;28;20084;-75
2023/10/18 08:44:24;;;;;;;9.10;7.05;;;;;;;;;;5075690;28;20024;-75
2023/10/18 08:49:43;;;;;;;9.10;5.68;;;;;;;;;;5080627;28;20028;-74
2023/10/18 08:52:10;;;;;;;6.45;5.35;;;;;;;;;;5077092;28;20031;-75
2023/10/18 08:54:37;;;;;;;8.23;6.28;;;;;;;;;;5077669;28;20095;-75
2023/10/18 08:57:06;;;;;;;9.13;6.70;;;;;;;;;;5075495;28;20033;-75
2023/10/18 08:59:50;;;;;;;9.38;7.53;;;;;;;;;;5074205;28;20040;-75
2023/10/18 09:02:21;;;;;;;8.82;6.97;;;;;;;;;;5075910;28;20017;-77
2023/10/18 09:04:54;;;;;;;7.72;6.28;;;;;;;;;;5073440;28;20104;-75
2023/10/18 09:09:57;;;;;;;6.13;5.03;;;;;;;;;;5073541;28;20032;-75
2023/10/18 09:15:35;;;;;;;5.90;5.00;;;;;;;;;;5047761;28;20025;-76
2023/10/18 09:18:04;;;;;;;10.52;6.65;;;;;;;;;;5073676;28;20021;-74
2023/10/18 09:20:30;;;;;;;8.43;6.20;;;;;;;;;;5073090;28;20499;-76
2023/10/18 09:23:03;;;;;;;7.40;5.68;;;;;;;;;;5073015;28;20432;-74
2023/10/18 09:28:25;;;;;;;6.20;4.97;;;;;;;;;;5073675;28;20031;-75
2023/10/18 09:31:00;;;;;;;4.93;4.22;;;;;;;;;;5072880;28;20025;-76
2023/10/18 09:33:31;;;;;;;4.25;3.83;;;;;;;;;;5055337;28;20021;-74
2023/10/18 09:36:01;;;;;;;4.32;3.60;;;;;;;;;;5054588;28;20021;-75
2023/10/18 09:38:39;;;;;;;4.20;3.80;;;;;;;;;;5051741;28;20029;-74
2023/10/18 09:41:05;;;;;;;4.07;3.60;;;;;;;;;;5052773;28;20561;-75
2023/10/18 09:43:32;;;;;;;4.00;3.60;;;;;;;;;;5053844;28;20032;-74
2023/10/18 09:45:59;;;;;;;4.28;3.63;;;;;;;;;;5051759;28;20499;-75
2023/10/18 09:48:32;;;;;;;4.95;3.65;;;;;;;;;;5054446;28;20545;-75
2023/10/18 09:51:06;;;;;;;5.45;4.53;;;;;;;;;;5067901;28;20509;-74
2023/10/18 09:53:34;;;;;;;3.92;3.55;;;;;;;;;;5078386;28;20036;-74
2023/10/18 09:56:02;;;;;;;6.35;5.28;;;;;;;;;;5078443;28;20399;-75
2023/10/18 09:58:29;;;;;;;4.80;4.20;;;;;;;;;;5078958;28;20402;-76
2023/10/18 10:01:13;;;;;;;5.05;4.55;;;;;;;;;;5081065;28;20071;-75
2023/10/18 10:03:40;;;;;;;4.68;4.07;;;;;;;;;;5082567;28;20017;-75
2023/10/18 10:06:06;;;;;;;3.88;3.30;;;;;;;;;;5072576;28;20025;-75
2023/10/18 10:08:34;;;;;;;6.45;5.22;;;;;;;;;;5087433;28;20054;-74
2023/10/18 10:11:12;;;;;;;6.63;5.97;;;;;;;;;;5080853;28;20043;-75
2023/10/18 10:13:38;;;;;;;9.07;6.30;;;;;;;;;;5078081;28;20047;-75
2023/10/18 10:16:08;;;;;;;8.05;6.47;;;;;;;;;;5077422;28;20021;-75
2023/10/18 10:18:38;;;;;;;6.68;5.95;;;;;;;;;;5077519;28;20020;-75
2023/10/18 10:21:06;;;;;;;6.75;5.07;;;;;;;;;;5075051;28;20017;-75
2023/10/18 10:23:33;;;;;;;4.93;4.20;;;;;;;;;;5077359;28;20028;-75
2023/10/18 10:26:22;;;;;;;7.63;5.63;;;;;;;;;;5076596;28;20020;-75
2023/10/18 10:32:05;;;;;;;5.32;4.82;;;;;;;;;;5076610;28;20055;-74
2023/10/18 10:34:36;;;;;;;6.65;5.68;;;;;;;;;;5053753;28;20044;-76
2023/10/18 10:37:18;;;;;;;7.22;5.57;;;;;;;;;;5074593;28;20020;-76
2023/10/18 10:39:49;;;;;;;6.07;5.05;;;;;;;;;;5034422;28;20085;-76
2023/10/18 10:42:46;;;;;;;5.20;4.20;;;;;;;;;;5074438;28;20027;-74
2023/10/18 10:51:12;;;;;;;4.88;4.22;;;;;;;;;;5056091;28;20119;-76
2023/10/18 10:53:48;;;;;;;6.72;5.40;;;;;;;;;;5057994;28;20029;-75
2023/10/18 10:56:33;;;;;;;6.78;4.82;;;;;;;;;;5034128;28;20084;-73
2023/10/18 11:04:29;;;;;;;5.80;5.10;;;;;;;;;;5035800;28;20033;-74
2023/10/18 11:07:05;;;;;;;5.82;4.00;;;;;;;;;;5036431;28;20109;-74
2023/10/18 11:09:38;;;;;;;5.38;3.90;;;;;;;;;;5035840;28;20029;-75
2023/10/18 11:12:10;;;;;;;5.28;4.43;;;;;;;;;;5066844;28;20051;-75
2023/10/18 11:14:36;;;;;;;6.13;5.22;;;;;;;;;;5066711;28;20056;-74
2023/10/18 11:19:44;;;;;;;6.60;5.43;;;;;;;;;;5058233;28;20120;-75
2023/10/18 11:22:11;;;;;;;10.70;6.47;;;;;;;;;;5057943;28;20044;-76
2023/10/18 11:24:39;;;;;;;7.10;5.53;;;;;;;;;;5058007;28;20013;-75
2023/10/18 11:27:09;;;;;;;7.65;5.97;;;;;;;;;;5061151;28;20054;-76
2023/10/18 11:29:38;;;;;;;7.40;6.28;;;;;;;;;;5056434;28;20491;-75
2023/10/18 11:32:07;;;;;;;7.65;6.25;;;;;;;;;;5059729;28;20055;-75
2023/10/18 11:34:33;;;;;;;8.15;5.97;;;;;;;;;;5062081;28;20033;-76
2023/10/18 11:37:02;;;;;;;6.85;5.47;;;;;;;;;;5059237;28;20115;-76
2023/10/18 11:39:32;;;;;;;7.43;5.78;;;;;;;;;;5059327;28;20029;-75
2023/10/18 11:41:59;;;;;;;8.57;5.60;;;;;;;;;;5057618;28;20104;-74
2023/10/18 11:44:33;;;;;;;6.07;5.15;;;;;;;;;;5056136;28;20020;-75
2023/10/18 11:47:12;;;;;;;7.20;6.03;;;;;;;;;;5064256;28;20043;-74
2023/10/18 11:49:42;;;;;;;5.53;4.68;;;;;;;;;;5087225;28;20043;-74
2023/10/18 11:52:16;;;;;;;7.72;6.43;;;;;;;;;;5091258;28;20055;-73
2023/10/18 11:54:43;;;;;;;8.70;7.07;;;;;;;;;;5091402;28;20031;-74
2023/10/18 11:57:24;;;;;;;9.45;5.57;;;;;;;;;;5092293;28;20032;-72
2023/10/18 11:59:52;;;;;;;7.00;5.90;;;;;;;;;;5085387;28;20049;-74
2023/10/18 12:02:18;;;;;;;10.40;6.70;;;;;;;;;;5089670;28;20047;-73
2023/10/18 12:04:45;;;;;;;5.32;4.72;;;;;;;;;;5090019;28;20025;-73
2023/10/18 12:07:13;;;;;;;8.32;6.43;;;;;;;;;;5084499;28;20024;-74
2023/10/18 12:09:43;;;;;;;6.55;5.45;;;;;;;;;;5076945;28;20103;-74
2023/10/18 12:12:13;;;;;;;5.47;4.97;;;;;;;;;;5083002;28;20027;-74
2023/10/18 12:14:42;;;;;;;5.55;4.97;;;;;;;;;;5071770;28;20379;-74
2023/10/18 12:17:10;;;;;;;7.57;5.70;;;;;;;;;;5054576;28;20063;-74
2023/10/18 12:19:37;;;;;;;6.80;6.05;;;;;;;;;;5053273;28;20505;-74
2023/10/18 12:22:04;;;;;;;9.73;6.72;;;;;;;;;;5055601;28;20032;-75
2023/10/18 12:24:33;;;;;;;7.68;6.20;;;;;;;;;;5054082;28;20033;-73
2023/10/18 12:27:15;;;;;;;7.00;5.10;;;;;;;;;;5052807;28;20021;-75
2023/10/18 12:29:43;;;;;;;5.85;4.60;;;;;;;;;;5053714;28;20394;-74
2023/10/18 12:35:12;;;;;;;7.80;5.13;;;;;;;;;;5018496;28;20022;-74
2023/10/18 12:37:40;;;;;;;5.97;4.32;;;;;;;;;;5073923;28;20012;-75
2023/10/18 12:40:24;;;;;;;7.43;4.68;;;;;;;;;;5073381;28;20096;-74
2023/10/18 12:42:50;;;;;;;5.40;4.88;;;;;;;;;;5073660;28;20016;-74
2023/10/18 12:45:18;;;;;;;7.90;6.15;;;;;;;;;;5073534;28;20024;-74
2023/10/18 12:47:47;;;;;;;6.85;4.82;;;;;;;;;;5058001;28;20063;-74
2023/10/18 12:50:18;;;;;;;11.50;6.03;;;;;;;;;;5055705;28;20074;-75
2023/10/18 12:52:44;;;;;;;7.13;5.03;;;;;;;;;;5063061;28;20365;-74
2023/10/18 12:55:32;;;;;;;5.70;4.70;;;;;;;;;;5069758;28;20021;-76
2023/10/18 12:58:00;;;;;;;4.30;3.78;;;;;;;;;;5063645;28;20039;-74
2023/10/18 13:00:32;;;;;;;5.10;3.97;;;;;;;;;;5057152;28;20050;-73
2023/10/18 13:05:40;;;;;;;6.20;3.63;;;;;;;;;;5065526;28;20025;-73
2023/10/18 13:08:16;;;;;;;5.47;4.57;;;;;;;;;;5068346;28;20020;-75
2023/10/18 13:10:48;;;;;;;6.22;4.28;;;;;;;;;;5073363;28;20498;-75
2023/10/18 13:13:16;;;;;;;6.50;5.43;;;;;;;;;;5074404;28;20111;-74
2023/10/18 13:15:46;;;;;;;7.15;4.50;;;;;;;;;;5067912;28;20358;-77
2023/10/18 13:18:13;;;;;;;5.75;4.00;;;;;;;;;;5067018;28;20062;-74
2023/10/18 13:20:43;;;;;;;3.95;3.55;;;;;;;;;;5071118;28;20501;-75
2023/10/18 13:23:09;;;;;;;3.42;3.00;;;;;;;;;;5067148;28;20092;-75
2023/10/18 13:25:49;;;;;;;4.45;3.60;;;;;;;;;;5066540;28;20031;-75
2023/10/18 13:28:24;;;;;;;4.20;2.97;;;;;;;;;;5072439;28;20371;-77
2023/10/18 13:30:51;;;;;;;3.85;2.97;;;;;;;;;;5074076;28;20027;-75
2023/10/18 13:33:18;;;;;;;6.25;4.25;;;;;;;;;;5067993;28;20017;-74
2023/10/18 13:35:49;;;;;;;3.05;2.75;;;;;;;;;;5065620;28;20035;-74
2023/10/18 13:38:15;;;;;;;4.40;3.55;;;;;;;;;;5071768;28;20016;-74
2023/10/18 13:40:43;;;;;;;6.57;3.40;;;;;;;;;;5062613;28;20426;-75
2023/10/18 13:43:10;;;;;;;5.13;3.78;;;;;;;;;;5064103;28;20021;-75
2023/10/18 13:45:37;;;;;;;4.78;3.15;;;;;;;;;;5076728;28;20082;-74
2023/10/18 13:48:03;;;;;;;2.60;2.40;;;;;;;;;;5078699;28;20008;-74
2023/10/18 13:50:31;;;;;;;2.58;2.30;;;;;;;;;;5069213;28;20067;-75
2023/10/18 13:52:57;;;;;;;2.70;2.38;;;;;;;;;;5067955;28;20063;-74
2023/10/18 13:55:25;;;;;;;3.10;2.58;;;;;;;;;;5073415;28;20016;-74
2023/10/18 13:57:51;;;;;;;3.35;2.17;;;;;;;;;;5074149;28;20036;-73
2023/10/18 14:00:21;;;;;;;2.42;2.00;;;;;;;;;;5067793;28;20032;-73
2023/10/18 14:02:47;;;;;;;2.63;2.05;;;;;;;;;;5068521;28;20039;-75
2023/10/18 14:05:13;;;;;;;3.20;2.03;;;;;;;;;;5076159;28;20012;-72
2023/10/18 14:07:41;;;;;;;2.25;1.90;;;;;;;;;;5074895;28;20086;-73
2023/10/18 14:10:19;;;;;;;3.25;2.03;;;;;;;;;;5076616;28;20552;-73
2023/10/18 14:12:45;;;;;;;2.65;2.22;;;;;;;;;;5076955;28;20040;-74
2023/10/18 14:15:16;;;;;;;2.83;2.05;;;;;;;;;;5071423;28;20059;-73
2023/10/18 14:17:46;;;;;;;6.40;3.53;;;;;;;;;;5070318;28;20486;-74
2023/10/18 14:20:12;;;;;;;5.57;2.90;;;;;;;;;;5067652;28;20039;-74
2023/10/18 14:22:40;;;;;;;3.53;2.97;;;;;;;;;;5060174;28;20036;-71
2023/10/18 14:25:13;;;;;;;3.03;2.72;;;;;;;;;;5066736;28;20032;-73
2023/10/18 14:27:40;;;;;;;3.92;3.15;;;;;;;;;;5074558;28;20458;-73
2023/10/18 14:30:12;;;;;;;3.10;2.50;;;;;;;;;;5072070;28;20072;-73
2023/10/18 14:32:39;;;;;;;3.28;2.75;;;;;;;;;;5075510;28;20097;-72
2023/10/18 14:35:06;;;;;;;4.40;3.05;;;;;;;;;;5072629;28;20031;-72
2023/10/18 14:37:33;;;;;;;2.97;2.75;;;;;;;;;;5071162;28;20471;-73
2023/10/18 14:39:59;;;;;;;3.97;3.00;;;;;;;;;;5075399;28;20051;-74
2023/10/18 14:42:28;;;;;;;2.58;2.20;;;;;;;;;;5075901;28;20024;-74
2023/10/18 14:45:00;;;;;;;2.03;1.83;;;;;;;;;;5075838;28;20375;-74
2023/10/18 14:47:27;;;;;;;2.38;1.95;;;;;;;;;;5075422;28;20115;-74
2023/10/18 14:49:53;;;;;;;2.28;2.00;;;;;;;;;;5075572;28;20475;-73
2023/10/18 14:52:19;;;;;;;1.75;1.65;;;;;;;;;;5070390;28;20063;-74
2023/10/18 14:54:46;;;;;;;1.80;1.70;;;;;;;;;;5070524;28;20025;-74
2023/10/18 14:57:12;;;;;;;2.58;2.03;;;;;;;;;;5070557;28;20495;-74
2023/10/18 14:59:42;;;;;;;2.63;2.20;;;;;;;;;;5075159;28;20479;-75
2023/10/18 15:02:12;;;;;;;2.53;2.20;;;;;;;;;;5075653;28;20523;-76
2023/10/18 15:04:38;;;;;;;2.85;2.65;;;;;;;;;;5069962;28;20359;-75
2023/10/18 15:07:04;;;;;;;3.92;2.75;;;;;;;;;;5068162;28;20017;-75
2023/10/18 15:09:31;;;;;;;3.00;2.53;;;;;;;;;;5071818;28;20021;-74
2023/10/18 15:11:57;;;;;;;3.13;2.80;;;;;;;;;;5059681;28;20032;-74
2023/10/18 15:14:23;;;;;;;4.55;3.92;;;;;;;;;;5074610;28;20039;-75
2023/10/18 15:16:49;;;;;;;5.20;3.67;;;;;;;;;;5075223;28;20111;-75
2023/10/18 15:19:15;;;;;;;4.55;3.60;;;;;;;;;;5059966;28;20562;-74
2023/10/18 15:21:48;;;;;;;4.63;3.78;;;;;;;;;;5058411;28;20028;-75
2023/10/18 15:24:14;;;;;;;5.40;3.53;;;;;;;;;;5075586;28;20483;-75
2023/10/18 15:26:40;;;;;;;4.07;2.83;;;;;;;;;;5071165;28;20083;-75
2023/10/18 15:29:09;;;;;;;3.40;2.72;;;;;;;;;;5059107;28;20055;-76
2023/10/18 15:31:39;;;;;;;3.85;2.95;;;;;;;;;;5050560;28;20107;-74
2023/10/18 15:34:05;;;;;;;4.97;3.33;;;;;;;;;;5067142;28;20024;-73
2023/10/18 15:36:31;;;;;;;4.57;3.70;;;;;;;;;;5065335;28;20115;-75
2023/10/18 15:38:59;;;;;;;6.38;4.10;;;;;;;;;;5063117;28;20024;-75
2023/10/18 15:41:25;;;;;;;4.07;3.35;;;;;;;;;;5065719;28;20479;-74
2023/10/18 15:43:58;;;;;;;3.97;3.15;;;;;;;;;;5058798;28;20538;-75
2023/10/18 15:46:25;;;;;;;6.22;4.82;;;;;;;;;;5074660;28;20368;-75
2023/10/18 15:48:51;;;;;;;4.72;3.83;;;;;;;;;;5062621;28;20487;-75
2023/10/18 15:51:18;;;;;;;4.18;3.78;;;;;;;;;;5061810;28;20020;-76